Details for Air Canada Jazz at CYYZ




Go Back


Latest METAR
Local Time

CYYZ 240000Z 26009KT 15SM OVC013 06/05 A3005 RMK SC8 SLP184

23/02/2018, 19:10:31

Description
Results
Air Canada Jazz Logo
Number of Pilots based at CYYZ
0 Pilots Based here
Number of Air Canada Jazz Flights Departed from CYYZ
0 Flights Departed
Number of Air Canada Jazz Flights Arrived at CYYZ
0 Flights Arrived
Number of Air Canada Jazz Schedules Departing from CYYZ
88 Schedules
Number of Air Canada Jazz Schedules Arriving at CYYZ
87 Schedules
Number of Air Canada Jazz Schedules Departing from CYYZ availible today
60 Schedules Today
Number of Air Canada Jazz Schedules Arriving at CYYZ availible today
65 Schedules Today
Average Landing Rate at CYYZ
-336 fpm
Air Canada Jazz Average Landing Rate at CYYZ
0 fpm
Total Fuel Purchased at CYYZ by Air Canada Jazz
0.00 kgs / 0.00 lbs

Pilots Based at CYYZ


Pilot ID
Pilot Name
Pilot Rank
No. of Flights
No. of Flying Hours
There are no pilots assigned to this hub!   Will you be the first?
Content